Flight Number: EUR1411 Duration: 1:15
Departure: Geneva Cointrin Airport (LSGG) at 21:15 Distance: 386 Nm
Arrival: Gatwick Airport (EGKK) at 22:30 Equipment: B737

Weather Information
Geneve-Cointrin, Switzerland (LSGG) 46-15N 006-08E 416M May 22, 2018 - 02:50 PM EDT / 2018.05.22 1850 UTC
Wind: from the E (080 degrees) at 3 MPH (3 KT):0
Visibility: greater than 7 mile(s):0
Sky conditions: mostly cloudy Weather: light rain Temperature: 60 F (16 C) Dew Point: 59 F (15 C) Relative Humidity: 93% Pressure (altimeter): 29.97 in. Hg (1015 hPa)
ob: LSGG 221850Z 08003KT 9999 -RA FEW040 SCT070 BKN080 16/15 Q1015 NOSIG cycle: 19
Sunrise: 03:58 Sunset: 19:06 (UTC)

London / Gatwick Airport, United Kingdom (EGKK) 51-09N 000-11W 0M May 22, 2018 - 02:50 PM EDT / 2018.05.22 1850 UTC
Wind: from the N (010 degrees) at 14 MPH (12 KT):0
Visibility: greater than 7 mile(s):0 Temperature: 66 F (19 C) Dew Point: 51 F (11 C) Relative Humidity: 59% Pressure (altimeter): 30.03 in. Hg (1017 hPa)
ob: EGKK 221850Z 01012KT CAVOK 19/11 Q1017 cycle: 19
Sunrise: 04:04 Sunset: 19:50 (UTC)

TAF:2018/05/22 18:15 TAF EGKK 221701Z 2218/2324 01012KT 9999 FEW045 PROB30 TEMPO 2301/2308 8000 BKN009 PROB30 TEMPO 2316/2324 6000 SHRA

Previous Pireps for this route
Date Aircraft Flight time Fuel used Landing rate On time
2014-01-11B73702.3610130-315No
2014-02-17B73701.4813947-544No
2015-01-05B7371.227616-86No
2016-01-23B7372.06126000No
2016-02-23CRJ7001.333444-176Charter
2016-03-21B73701.296924-158No
2016-04-18B73701.327618-361Yes
2016-08-28B73700.599847-306Yes
2016-10-28B7371.1478790No
2018-03-27B73702.387058-400No
(pireps marked green are flown by you)

Route map